Time;durP1;ratioP1;P1;durP2;ratioP2;P2;SDS_P1;SDS_P2;PMS_P1;PMS_P2;Temp;Humidity;BMP_temperature;BMP_pressure;BME280_temperature;BME280_humidity;BME280_pressure;Samples;Min_cycle;Max_cycle;Signal;HPM_P1;HPM_P2
2022/06/04 00:00:05;;;;;;;;;;;;;;;;;;5114453;28;19915;-52
2022/06/04 00:02:32;;;;;;;;;;;;;;;;;;5114497;28;20294;-54
2022/06/04 00:04:58;;;;;;;;;;;;;;;;;;5113717;28;19926;-50
2022/06/04 00:07:25;;;;;;;;;;;;;;;;;;5113076;28;20080;-56
2022/06/04 00:15:30;;;;;;;;;;;;;;;;;;5114914;28;19934;-52
2022/06/04 00:17:56;;;;;;;;;;;;;;;;;;5114342;27;19934;-59
2022/06/04 00:20:23;;;;;;;;;;;;;;;;;;5114513;28;20358;-54
2022/06/04 00:22:49;;;;;;;;;;;;;;;;;;5114541;28;19954;-52
2022/06/04 00:25:15;;;;;;;;;;;;;;;;;;5113107;28;19914;-49
2022/06/04 00:27:42;;;;;;;;;;;;;;;;;;5114122;28;20393;-57
2022/06/04 00:30:08;;;;;;;;;;;;;;;;;;5113658;28;19926;-49
2022/06/04 00:32:35;;;;;;;;;;;;;;;;;;5113315;28;20007;-52
2022/06/04 00:35:01;;;;;;;;;;;;;;;;;;5113474;28;19912;-54
2022/06/04 00:37:28;;;;;;;;;;;;;;;;;;5113600;28;19963;-51
2022/06/04 00:39:54;;;;;;;;;;;;;;;;;;5113562;28;19954;-48
2022/06/04 00:42:21;;;;;;;;;;;;;;;;;;5113582;28;20371;-53
2022/06/04 00:44:47;;;;;;;;;;;;;;;;;;5113460;28;20039;-50
2022/06/04 00:47:14;;;;;;;;;;;;;;;;;;5113121;28;20226;-55
2022/06/04 00:49:40;;;;;;;;;;;;;;;;;;5113645;28;19914;-50
2022/06/04 00:52:07;;;;;;;;;;;;;;;;;;5112729;28;19908;-50
2022/06/04 00:54:33;;;;;;;;;;;;;;;;;;5113171;28;19931;-52
2022/06/04 00:57:00;;;;;;;;;;;;;;;;;;5113339;28;20010;-53
2022/06/04 00:59:26;;;;;;;;;;;;;;;;;;5113420;28;19907;-50
2022/06/04 01:01:53;;;;;;;;;;;;;;;;;;5112788;28;20286;-48
2022/06/04 01:04:47;;;;;;;;;;;;;;;;;;5112821;28;19999;-44
2022/06/04 01:07:06;;;;;;;;;;;;;;;;;;5112831;28;19912;-50
2022/06/04 01:09:32;;;;;;;;;;;;;;;;;;5112761;28;19912;-52
2022/06/04 01:12:11;;;;;;;;;;;;;;;;;;5112386;28;20355;-51
2022/06/04 01:14:37;;;;;;;;;;;;;;;;;;5112603;28;19915;-51
2022/06/04 01:17:03;;;;;;;;;;;;;;;;;;5112429;28;20384;-49
2022/06/04 01:19:30;;;;;;;;;;;;;;;;;;5112983;28;19908;-49
2022/06/04 01:21:57;;;;;;;;;;;;;;;;;;5112935;28;20362;-47
2022/06/04 01:24:23;;;;;;;;;;;;;;;;;;5113345;28;19908;-52
2022/06/04 01:26:49;;;;;;;;;;;;;;;;;;5113594;27;19908;-55
2022/06/04 01:29:16;;;;;;;;;;;;;;;;;;5113106;28;19908;-51
2022/06/04 01:31:43;;;;;;;;;;;;;;;;;;5113389;28;19907;-50
2022/06/04 01:34:09;;;;;;;;;;;;;;;;;;5113346;28;19960;-52
2022/06/04 01:36:38;;;;;;;;;;;;;;;;;;5112844;28;20372;-60
2022/06/04 01:39:04;;;;;;;;;;;;;;;;;;5112948;28;20393;-57
2022/06/04 01:41:33;;;;;;;;;;;;;;;;;;5112941;28;20343;-49
2022/06/04 01:43:59;;;;;;;;;;;;;;;;;;5113232;28;20310;-56
2022/06/04 01:46:26;;;;;;;;;;;;;;;;;;5111820;28;19908;-53
2022/06/04 01:48:52;;;;;;;;;;;;;;;;;;5111533;28;20049;-46
2022/06/04 01:51:19;;;;;;;;;;;;;;;;;;5113372;28;19907;-53
2022/06/04 01:53:45;;;;;;;;;;;;;;;;;;5113127;28;19971;-52
2022/06/04 01:56:12;;;;;;;;;;;;;;;;;;5113038;28;19916;-53
2022/06/04 01:58:40;;;;;;;;;;;;;;;;;;5111753;28;19908;-51
2022/06/04 02:01:06;;;;;;;;;;;;;;;;;;5112315;28;19992;-45
2022/06/04 02:03:33;;;;;;;;;;;;;;;;;;5112755;28;19908;-51
2022/06/04 02:05:59;;;;;;;;;;;;;;;;;;5112602;28;20385;-56
2022/06/04 02:08:26;;;;;;;;;;;;;;;;;;5112169;28;19924;-51
2022/06/04 02:10:52;;;;;;;;;;;;;;;;;;5110803;28;19908;-54
2022/06/04 02:13:19;;;;;;;;;;;;;;;;;;5112617;28;20005;-56
2022/06/04 02:15:45;;;;;;;;;;;;;;;;;;5116565;28;19931;-58
2022/06/04 02:18:13;;;;;;;;;;;;;;;;;;5117315;28;19995;-49
2022/06/04 02:20:39;;;;;;;;;;;;;;;;;;5116854;27;19999;-56
2022/06/04 02:23:06;;;;;;;;;;;;;;;;;;5117298;28;19968;-56
2022/06/04 02:25:32;;;;;;;;;;;;;;;;;;5115706;28;19908;-57
2022/06/04 02:27:59;;;;;;;;;;;;;;;;;;5116500;28;20024;-51
2022/06/04 02:30:25;;;;;;;;;;;;;;;;;;5116234;28;19908;-57
2022/06/04 02:32:52;;;;;;;;;;;;;;;;;;5115678;28;20006;-47
2022/06/04 02:35:18;;;;;;;;;;;;;;;;;;5116253;28;19930;-40
2022/06/04 02:37:45;;;;;;;;;;;;;;;;;;5091528;28;19990;-45
2022/06/04 02:40:11;;;;;;;;;;;;;;;;;;5090973;28;20262;-40
2022/06/04 02:42:38;;;;;;;;;;;;;;;;;;5091640;28;19908;-58
2022/06/04 02:45:04;;;;;;;;;;;;;;;;;;5092753;28;19916;-44
2022/06/04 02:47:31;;;;;;;;;;;;;;;;;;5092443;28;19916;-44
2022/06/04 02:49:57;;;;;;;;;;;;;;;;;;5090303;28;20039;-45
2022/06/04 02:52:24;;;;;;;;;;;;;;;;;;5092981;28;19912;-43
2022/06/04 02:54:50;;;;;;;;;;;;;;;;;;5092957;28;20286;-46
2022/06/04 02:57:17;;;;;;;;;;;;;;;;;;5092153;28;19924;-47
2022/06/04 02:59:44;;;;;;;;;;;;;;;;;;5091160;28;20195;-49
2022/06/04 03:02:10;;;;;;;;;;;;;;;;;;5091517;28;20010;-53
2022/06/04 03:04:37;;;;;;;;;;;;;;;;;;5091943;28;19947;-59
2022/06/04 03:07:03;;;;;;;;;;;;;;;;;;5091656;28;19912;-43
2022/06/04 03:09:30;;;;;;;;;;;;;;;;;;5091560;28;19912;-48
2022/06/04 03:11:56;;;;;;;;;;;;;;;;;;5089444;28;19916;-48
2022/06/04 03:14:23;;;;;;;;;;;;;;;;;;5091003;28;20530;-44
2022/06/04 03:16:49;;;;;;;;;;;;;;;;;;5091211;28;20069;-51
2022/06/04 03:19:16;;;;;;;;;;;;;;;;;;5091051;28;19908;-50
2022/06/04 03:21:43;;;;;;;;;;;;;;;;;;5088711;28;19908;-51
2022/06/04 03:24:09;;;;;;;;;;;;;;;;;;5090021;28;19908;-48
2022/06/04 03:26:36;;;;;;;;;;;;;;;;;;5088531;28;19912;-50
2022/06/04 03:29:02;;;;;;;;;;;;;;;;;;5091177;28;19939;-50
2022/06/04 03:31:29;;;;;;;;;;;;;;;;;;5088699;28;19908;-48
2022/06/04 03:33:55;;;;;;;;;;;;;;;;;;5090464;28;19922;-48
2022/06/04 03:36:22;;;;;;;;;;;;;;;;;;5092307;28;20279;-41
2022/06/04 03:38:48;;;;;;;;;;;;;;;;;;5092698;28;19954;-48
2022/06/04 03:41:15;;;;;;;;;;;;;;;;;;5093107;28;20378;-51
2022/06/04 03:43:41;;;;;;;;;;;;;;;;;;5093348;28;19930;-48
2022/06/04 03:46:08;;;;;;;;;;;;;;;;;;5092421;28;19935;-47
2022/06/04 03:48:35;;;;;;;;;;;;;;;;;;5092482;28;19916;-49
2022/06/04 03:51:01;;;;;;;;;;;;;;;;;;5093592;28;19920;-42
2022/06/04 03:53:28;;;;;;;;;;;;;;;;;;5093348;28;19916;-38
2022/06/04 03:55:54;;;;;;;;;;;;;;;;;;5092949;28;20003;-54
2022/06/04 03:58:20;;;;;;;;;;;;;;;;;;5092678;28;19927;-52
2022/06/04 04:00:47;;;;;;;;;;;;;;;;;;5092532;28;20355;-54
2022/06/04 04:03:13;;;;;;;;;;;;;;;;;;5092688;28;20052;-54
2022/06/04 04:05:41;;;;;;;;;;;;;;;;;;5093108;28;20435;-57
2022/06/04 04:08:07;;;;;;;;;;;;;;;;;;4961364;28;3715658;-55
2022/06/04 04:10:33;;;;;;;;;;;;;;;;;;5093577;28;19961;-50
2022/06/04 04:13:00;;;;;;;;;;;;;;;;;;5094008;28;19904;-53
2022/06/04 04:15:27;;;;;;;;;;;;;;;;;;5093603;28;19909;-49
2022/06/04 04:17:53;;;;;;;;;;;;;;;;;;5092785;28;19916;-49
2022/06/04 04:20:20;;;;;;;;;;;;;;;;;;5092753;28;19950;-44
2022/06/04 04:22:46;;;;;;;;;;;;;;;;;;5093457;28;19966;-57
2022/06/04 04:25:13;;;;;;;;;;;;;;;;;;5092573;28;19916;-48
2022/06/04 04:27:39;;;;;;;;;;;;;;;;;;5091979;28;19911;-37
2022/06/04 04:30:06;;;;;;;;;;;;;;;;;;5092754;28;20366;-54
2022/06/04 04:32:32;;;;;;;;;;;;;;;;;;5083331;28;19920;-56
2022/06/04 04:34:59;;;;;;;;;;;;;;;;;;5080610;28;19999;-44
2022/06/04 04:37:25;;;;;;;;;;;;;;;;;;5079021;28;19950;-39
2022/06/04 04:39:51;;;;;;;;;;;;;;;;;;5087650;28;19915;-40
2022/06/04 04:42:18;;;;;;;;;;;;;;;;;;5086182;28;20530;-43
2022/06/04 04:44:44;;;;;;;;;;;;;;;;;;5080360;28;19954;-47
2022/06/04 04:47:11;;;;;;;;;;;;;;;;;;5083411;28;19912;-43
2022/06/04 04:49:37;;;;;;;;;;;;;;;;;;5084722;28;19937;-52
2022/06/04 04:52:04;;;;;;;;;;;;;;;;;;5079902;28;19954;-42
2022/06/04 04:54:31;;;;;;;;;;;;;;;;;;5083316;28;19920;-57
2022/06/04 04:56:57;;;;;;;;;;;;;;;;;;5087884;28;19970;-59
2022/06/04 04:59:23;;;;;;;;;;;;;;;;;;5078535;28;19915;-56
2022/06/04 05:01:50;;;;;;;;;;;;;;;;;;5087668;28;20428;-48
2022/06/04 05:04:16;;;;;;;;;;;;;;;;;;5085301;28;19908;-46
2022/06/04 05:06:43;;;;;;;;;;;;;;;;;;5083761;28;20006;-41
2022/06/04 05:09:09;;;;;;;;;;;;;;;;;;5070523;28;20032;-58
2022/06/04 05:11:36;;;;;;;;;;;;;;;;;;5072978;28;19908;-44
2022/06/04 05:14:03;;;;;;;;;;;;;;;;;;5074402;28;19991;-54
2022/06/04 05:16:29;;;;;;;;;;;;;;;;;;5068235;28;20019;-47
2022/06/04 05:18:56;;;;;;;;;;;;;;;;;;5064386;28;19951;-54
2022/06/04 05:21:25;;;;;;;;;;;;;;;;;;5072034;28;20359;-48
2022/06/04 05:23:52;;;;;;;;;;;;;;;;;;5071740;28;20271;-46
2022/06/04 05:26:18;;;;;;;;;;;;;;;;;;5069001;28;19931;-51
2022/06/04 05:28:45;;;;;;;;;;;;;;;;;;5069880;28;20008;-46
2022/06/04 05:31:12;;;;;;;;;;;;;;;;;;5071622;28;19914;-51
2022/06/04 05:33:38;;;;;;;;;;;;;;;;;;5072479;28;19912;-46
2022/06/04 05:36:05;;;;;;;;;;;;;;;;;;5069377;28;20268;-50
2022/06/04 05:38:34;;;;;;;;;;;;;;;;;;5069090;28;19923;-56
2022/06/04 05:41:01;;;;;;;;;;;;;;;;;;5071009;28;19995;-46
2022/06/04 05:43:27;;;;;;;;;;;;;;;;;;5055372;28;20248;-58
2022/06/04 05:45:54;;;;;;;;;;;;;;;;;;5073955;28;20003;-52
2022/06/04 05:48:20;;;;;;;;;;;;;;;;;;5068783;28;19913;-58
2022/06/04 05:50:47;;;;;;;;;;;;;;;;;;5069974;28;19916;-44
2022/06/04 05:53:13;;;;;;;;;;;;;;;;;;5071311;28;20385;-51
2022/06/04 05:55:40;;;;;;;;;;;;;;;;;;5071839;28;19999;-57
2022/06/04 05:58:06;;;;;;;;;;;;;;;;;;5072344;28;19920;-50
2022/06/04 06:00:33;;;;;;;;;;;;;;;;;;5071489;28;20366;-50
2022/06/04 06:02:59;;;;;;;;;;;;;;;;;;5071648;28;19962;-55
2022/06/04 06:05:26;;;;;;;;;;;;;;;;;;5071850;28;20295;-56
2022/06/04 06:07:53;;;;;;;;;;;;;;;;;;5082403;28;20370;-56
2022/06/04 06:10:20;;;;;;;;;;;;;;;;;;5092379;28;19915;-54
2022/06/04 06:12:46;;;;;;;;;;;;;;;;;;5092497;28;20374;-55
2022/06/04 06:15:13;;;;;;;;;;;;;;;;;;5091958;28;20009;-57
2022/06/04 06:17:40;;;;;;;;;;;;;;;;;;5091274;28;20076;-54
2022/06/04 06:20:06;;;;;;;;;;;;;;;;;;5091013;28;19908;-53
2022/06/04 06:22:33;;;;;;;;;;;;;;;;;;5091878;28;20363;-54
2022/06/04 06:25:04;;;;;;;;;;;;;;;;;;5092559;28;19961;-57
2022/06/04 06:27:30;;;;;;;;;;;;;;;;;;5090744;28;20363;-60
2022/06/04 06:29:57;;;;;;;;;;;;;;;;;;5091195;28;20077;-56
2022/06/04 06:32:24;;;;;;;;;;;;;;;;;;5090886;28;20278;-54
2022/06/04 06:34:50;;;;;;;;;;;;;;;;;;5091502;28;20282;-53
2022/06/04 06:37:17;;;;;;;;;;;;;;;;;;5091118;28;19923;-59
2022/06/04 06:39:43;;;;;;;;;;;;;;;;;;5091850;28;19927;-56
2022/06/04 06:42:10;;;;;;;;;;;;;;;;;;5091689;28;19908;-56
2022/06/04 06:44:39;;;;;;;;;;;;;;;;;;5091232;28;19983;-56
2022/06/04 06:47:07;;;;;;;;;;;;;;;;;;5091277;28;19964;-55
2022/06/04 06:49:34;;;;;;;;;;;;;;;;;;5090845;28;19916;-53
2022/06/04 06:52:00;;;;;;;;;;;;;;;;;;5091413;28;19962;-55
2022/06/04 06:54:27;;;;;;;;;;;;;;;;;;5090637;28;19912;-52
2022/06/04 06:56:53;;;;;;;;;;;;;;;;;;5090777;28;19962;-54
2022/06/04 06:59:25;;;;;;;;;;;;;;;;;;5091799;28;19922;-53
2022/06/04 07:01:51;;;;;;;;;;;;;;;;;;5094833;28;19908;-52
2022/06/04 07:04:18;;;;;;;;;;;;;;;;;;5094810;28;20026;-55
2022/06/04 07:06:44;;;;;;;;;;;;;;;;;;5095038;28;19904;-56
2022/06/04 07:09:11;;;;;;;;;;;;;;;;;;5094921;28;20365;-54
2022/06/04 07:11:37;;;;;;;;;;;;;;;;;;5094770;28;19918;-55
2022/06/04 07:14:04;;;;;;;;;;;;;;;;;;5094940;28;19919;-53
2022/06/04 07:16:30;;;;;;;;;;;;;;;;;;5094778;28;20421;-55
2022/06/04 07:18:57;;;;;;;;;;;;;;;;;;5094679;28;19948;-52
2022/06/04 07:21:24;;;;;;;;;;;;;;;;;;5094801;28;19940;-56
2022/06/04 07:23:50;;;;;;;;;;;;;;;;;;5094511;28;20053;-51
2022/06/04 07:26:17;;;;;;;;;;;;;;;;;;5094649;28;19960;-52
2022/06/04 07:28:43;;;;;;;;;;;;;;;;;;5094479;28;19951;-54
2022/06/04 07:31:10;;;;;;;;;;;;;;;;;;5095254;28;19962;-55
2022/06/04 07:33:37;;;;;;;;;;;;;;;;;;5095011;28;19919;-54
2022/06/04 07:36:03;;;;;;;;;;;;;;;;;;5094244;28;20010;-56
2022/06/04 07:38:30;;;;;;;;;;;;;;;;;;5094649;28;19957;-52
2022/06/04 07:40:56;;;;;;;;;;;;;;;;;;5094837;28;20049;-50
2022/06/04 07:43:23;;;;;;;;;;;;;;;;;;5095129;28;19912;-54
2022/06/04 07:45:49;;;;;;;;;;;;;;;;;;5094866;28;19908;-54
2022/06/04 07:48:16;;;;;;;;;;;;;;;;;;5094549;28;19916;-48
2022/06/04 07:50:42;;;;;;;;;;;;;;;;;;5094354;28;19908;-53
2022/06/04 07:53:09;;;;;;;;;;;;;;;;;;5093236;28;20011;-51
2022/06/04 07:55:35;;;;;;;;;;;;;;;;;;5094832;28;19962;-52
2022/06/04 07:58:01;;;;;;;;;;;;;;;;;;5094506;28;20294;-51
2022/06/04 08:00:28;;;;;;;;;;;;;;;;;;5093966;28;19908;-52
2022/06/04 08:02:55;;;;;;;;;;;;;;;;;;5091011;28;19982;-53
2022/06/04 08:08:06;;;;;;;;;;;;;;;;;;5083822;28;19970;-55
2022/06/04 08:10:32;;;;;;;;;;;;;;;;;;5090043;28;19934;-46
2022/06/04 08:13:01;;;;;;;;;;;;;;;;;;5083596;28;19912;-50
2022/06/04 08:15:28;;;;;;;;;;;;;;;;;;5088065;28;19912;-52
2022/06/04 08:17:55;;;;;;;;;;;;;;;;;;5066673;28;19916;-51
2022/06/04 08:20:21;;;;;;;;;;;;;;;;;;5085170;28;19916;-53
2022/06/04 08:22:48;;;;;;;;;;;;;;;;;;5088298;28;20036;-50
2022/06/04 08:25:16;;;;;;;;;;;;;;;;;;5086532;28;19951;-52
2022/06/04 08:27:44;;;;;;;;;;;;;;;;;;5081007;28;20351;-52
2022/06/04 08:30:11;;;;;;;;;;;;;;;;;;5086573;28;20385;-57
2022/06/04 08:32:37;;;;;;;;;;;;;;;;;;5078424;28;19916;-56
2022/06/04 08:35:04;;;;;;;;;;;;;;;;;;5073784;28;20438;-48
2022/06/04 08:37:30;;;;;;;;;;;;;;;;;;5072820;28;20016;-48
2022/06/04 08:39:57;;;;;;;;;;;;;;;;;;5073276;28;20339;-53
2022/06/04 08:42:23;;;;;;;;;;;;;;;;;;5072903;28;19995;-50
2022/06/04 08:44:50;;;;;;;;;;;;;;;;;;5055455;28;19943;-55
2022/06/04 08:47:17;;;;;;;;;;;;;;;;;;5073091;28;19909;-44
2022/06/04 08:49:43;;;;;;;;;;;;;;;;;;5072833;28;20239;-54
2022/06/04 08:52:10;;;;;;;;;;;;;;;;;;5072753;28;19909;-50
2022/06/04 08:57:33;;;;;;;;;;;;;;;;;;5083143;28;19942;-65
2022/06/04 08:59:59;;;;;;;;;;;;;;;;;;5084581;28;19935;-44
2022/06/04 09:02:26;;;;;;;;;;;;;;;;;;5084305;28;20402;-56
2022/06/04 09:04:52;;;;;;;;;;;;;;;;;;5083006;28;19908;-53
2022/06/04 09:07:19;;;;;;;;;;;;;;;;;;5086134;28;19912;-51
2022/06/04 09:09:46;;;;;;;;;;;;;;;;;;5092553;28;19943;-44
2022/06/04 09:12:12;;;;;;;;;;;;;;;;;;5092378;28;20366;-54
2022/06/04 09:14:39;;;;;;;;;;;;;;;;;;5091794;28;20006;-58
2022/06/04 09:17:05;;;;;;;;;;;;;;;;;;5092746;28;20286;-52
2022/06/04 09:19:32;;;;;;;;;;;;;;;;;;5092891;28;19915;-57
2022/06/04 09:21:58;;;;;;;;;;;;;;;;;;5092516;28;20362;-60
2022/06/04 09:24:25;;;;;;;;;;;;;;;;;;5091766;28;19919;-53
2022/06/04 09:26:51;;;;;;;;;;;;;;;;;;5092697;28;19935;-60
2022/06/04 09:29:18;;;;;;;;;;;;;;;;;;5093344;28;19939;-55
2022/06/04 09:31:44;;;;;;;;;;;;;;;;;;5093115;28;20423;-60
2022/06/04 09:34:11;;;;;;;;;;;;;;;;;;5092573;28;19912;-55
2022/06/04 09:36:37;;;;;;;;;;;;;;;;;;5092926;28;19916;-59
2022/06/04 09:39:04;;;;;;;;;;;;;;;;;;5093104;28;19991;-58
2022/06/04 09:41:30;;;;;;;;;;;;;;;;;;5093457;28;19912;-57
2022/06/04 09:43:57;;;;;;;;;;;;;;;;;;5091747;28;20267;-54
2022/06/04 09:46:23;;;;;;;;;;;;;;;;;;5091693;28;19943;-59
2022/06/04 09:48:50;;;;;;;;;;;;;;;;;;5092076;28;19908;-49
2022/06/04 09:51:16;;;;;;;;;;;;;;;;;;5090875;28;19916;-48
2022/06/04 09:53:43;;;;;;;;;;;;;;;;;;5091328;28;19916;-59
2022/06/04 09:56:09;;;;;;;;;;;;;;;;;;5092510;28;19916;-63
2022/06/04 09:58:36;;;;;;;;;;;;;;;;;;5092217;28;19912;-56
2022/06/04 10:01:02;;;;;;;;;;;;;;;;;;5092627;28;19927;-62
2022/06/04 10:03:30;;;;;;;;;;;;;;;;;;5092969;28;20351;-53
2022/06/04 10:05:57;;;;;;;;;;;;;;;;;;5092045;28;20340;-48
2022/06/04 10:08:23;;;;;;;;;;;;;;;;;;5106129;28;20401;-48
2022/06/04 10:10:50;;;;;;;;;;;;;;;;;;5110815;28;19915;-56
2022/06/04 10:16:02;;;;;;;;;;;;;;;;;;5112659;28;19925;-57
2022/06/04 10:18:29;;;;;;;;;;;;;;;;;;5111085;28;20282;-57
2022/06/04 10:20:55;;;;;;;;;;;;;;;;;;5112282;28;19979;-53
2022/06/04 10:23:22;;;;;;;;;;;;;;;;;;5112447;28;19912;-50
2022/06/04 10:25:48;;;;;;;;;;;;;;;;;;5112772;28;19911;-55
2022/06/04 10:28:15;;;;;;;;;;;;;;;;;;5112665;28;19915;-53
2022/06/04 10:30:41;;;;;;;;;;;;;;;;;;5112449;28;19994;-56
2022/06/04 10:33:08;;;;;;;;;;;;;;;;;;5112751;28;19912;-54
2022/06/04 10:35:34;;;;;;;;;;;;;;;;;;5113997;28;19914;-51
2022/06/04 10:38:01;;;;;;;;;;;;;;;;;;5116736;28;19920;-48
2022/06/04 10:40:28;;;;;;;;;;;;;;;;;;5115122;28;19908;-57
2022/06/04 10:42:54;;;;;;;;;;;;;;;;;;5116474;28;19943;-51
2022/06/04 10:45:21;;;;;;;;;;;;;;;;;;5115225;28;19912;-48
2022/06/04 10:47:47;;;;;;;;;;;;;;;;;;5116436;28;19931;-53
2022/06/04 10:50:14;;;;;;;;;;;;;;;;;;5116187;28;19990;-59
2022/06/04 10:52:40;;;;;;;;;;;;;;;;;;5116317;28;19908;-47
2022/06/04 10:55:07;;;;;;;;;;;;;;;;;;5116317;28;19908;-58
2022/06/04 10:57:33;;;;;;;;;;;;;;;;;;5116236;28;19951;-51
2022/06/04 11:00:00;;;;;;;;;;;;;;;;;;5116228;28;19930;-50
2022/06/04 11:02:26;;;;;;;;;;;;;;;;;;5115887;28;19914;-59
2022/06/04 11:04:53;;;;;;;;;;;;;;;;;;5116389;28;19907;-54
2022/06/04 11:07:19;;;;;;;;;;;;;;;;;;5115897;28;19930;-61
2022/06/04 11:09:46;;;;;;;;;;;;;;;;;;5115796;28;20328;-54
2022/06/04 11:12:12;;;;;;;;;;;;;;;;;;5115870;28;19947;-53
2022/06/04 11:14:39;;;;;;;;;;;;;;;;;;5115669;28;20378;-50
2022/06/04 11:17:05;;;;;;;;;;;;;;;;;;5115543;28;20290;-51
2022/06/04 11:19:32;;;;;;;;;;;;;;;;;;5115542;28;19908;-50
2022/06/04 11:21:59;;;;;;;;;;;;;;;;;;5115347;27;20308;-50
2022/06/04 11:24:29;;;;;;;;;;;;;;;;;;5115617;28;19908;-58
2022/06/04 11:26:55;;;;;;;;;;;;;;;;;;5115714;27;19904;-52
2022/06/04 11:29:22;;;;;;;;;;;;;;;;;;5116281;28;19974;-56
2022/06/04 11:31:48;;;;;;;;;;;;;;;;;;5115233;28;19961;-47
2022/06/04 11:34:15;;;;;;;;;;;;;;;;;;5115871;28;19946;-52
2022/06/04 11:36:41;;;;;;;;;;;;;;;;;;5115227;28;20355;-55
2022/06/04 11:39:08;;;;;;;;;;;;;;;;;;5114154;28;19991;-57
2022/06/04 11:41:34;;;;;;;;;;;;;;;;;;5114886;28;19998;-55
2022/06/04 11:44:01;;;;;;;;;;;;;;;;;;5115141;28;19918;-49
2022/06/04 11:46:27;;;;;;;;;;;;;;;;;;5114654;28;19908;-60
2022/06/04 11:48:54;;;;;;;;;;;;;;;;;;5115625;28;19908;-59
2022/06/04 11:51:20;;;;;;;;;;;;;;;;;;5115243;28;20316;-46
2022/06/04 11:53:47;;;;;;;;;;;;;;;;;;5113783;28;19915;-45
2022/06/04 11:56:13;;;;;;;;;;;;;;;;;;5114854;28;19958;-57
2022/06/04 11:58:40;;;;;;;;;;;;;;;;;;5114712;28;19923;-54
2022/06/04 12:01:06;;;;;;;;;;;;;;;;;;5114767;28;20052;-56
2022/06/04 12:03:33;;;;;;;;;;;;;;;;;;5114682;28;19952;-49
2022/06/04 12:05:59;;;;;;;;;;;;;;;;;;5115103;28;19931;-50
2022/06/04 12:08:26;;;;;;;;;;;;;;;;;;5110379;28;20015;-53
2022/06/04 12:10:52;;;;;;;;;;;;;;;;;;5114770;28;19930;-47
2022/06/04 12:13:19;;;;;;;;;;;;;;;;;;5114421;27;19908;-52
2022/06/04 12:15:45;;;;;;;;;;;;;;;;;;5113847;28;19908;-57
2022/06/04 12:18:12;;;;;;;;;;;;;;;;;;5114661;28;19916;-55
2022/06/04 12:26:07;;;;;;;;;;;;;;;;;;5114133;28;19996;-51
2022/06/04 12:28:34;;;;;;;;;;;;;;;;;;5113966;27;19908;-46
2022/06/04 12:31:01;;;;;;;;;;;;;;;;;;5114423;28;19912;-47
2022/06/04 12:33:28;;;;;;;;;;;;;;;;;;5114034;28;19961;-55
2022/06/04 12:35:56;;;;;;;;;;;;;;;;;;5114375;28;20315;-51
2022/06/04 12:38:23;;;;;;;;;;;;;;;;;;5114475;28;19943;-57
2022/06/04 12:40:51;;;;;;;;;;;;;;;;;;5114331;27;19982;-53
2022/06/04 12:43:21;;;;;;;;;;;;;;;;;;5113507;28;19911;-50
2022/06/04 12:45:48;;;;;;;;;;;;;;;;;;5113471;28;20273;-59
2022/06/04 12:48:14;;;;;;;;;;;;;;;;;;5114284;28;19914;-53
2022/06/04 12:50:40;;;;;;;;;;;;;;;;;;5114779;28;19908;-50
2022/06/04 12:53:07;;;;;;;;;;;;;;;;;;5113434;28;19968;-46
2022/06/04 12:55:34;;;;;;;;;;;;;;;;;;5113600;28;20262;-49
2022/06/04 12:58:01;;;;;;;;;;;;;;;;;;5112282;28;19992;-46
2022/06/04 13:00:28;;;;;;;;;;;;;;;;;;5113998;28;19908;-52
2022/06/04 13:02:54;;;;;;;;;;;;;;;;;;5113748;28;19908;-46
2022/06/04 13:05:21;;;;;;;;;;;;;;;;;;5113770;28;19920;-54
2022/06/04 13:07:48;;;;;;;;;;;;;;;;;;5113202;28;19926;-51
2022/06/04 13:10:14;;;;;;;;;;;;;;;;;;5113359;28;19969;-42
2022/06/04 13:12:41;;;;;;;;;;;;;;;;;;5111639;28;19965;-49
2022/06/04 13:15:08;;;;;;;;;;;;;;;;;;5113669;28;19961;-48
2022/06/04 13:17:34;;;;;;;;;;;;;;;;;;5113407;28;19920;-56
2022/06/04 13:20:01;;;;;;;;;;;;;;;;;;5113681;28;20037;-49
2022/06/04 13:22:27;;;;;;;;;;;;;;;;;;5113369;28;19998;-45
2022/06/04 13:24:57;;;;;;;;;;;;;;;;;;5113041;28;19907;-48
2022/06/04 13:27:23;;;;;;;;;;;;;;;;;;5112897;28;19970;-48
2022/06/04 13:29:50;;;;;;;;;;;;;;;;;;5112999;28;19915;-50
2022/06/04 13:32:17;;;;;;;;;;;;;;;;;;5113094;28;20366;-51
2022/06/04 13:34:44;;;;;;;;;;;;;;;;;;5112638;28;19912;-51
2022/06/04 13:37:11;;;;;;;;;;;;;;;;;;5113289;28;19969;-53
2022/06/04 13:39:37;;;;;;;;;;;;;;;;;;5112966;28;20041;-51
2022/06/04 13:42:09;;;;;;;;;;;;;;;;;;5112990;28;20002;-50
2022/06/04 13:44:35;;;;;;;;;;;;;;;;;;5112574;28;20308;-55
2022/06/04 13:47:02;;;;;;;;;;;;;;;;;;5112855;28;19930;-58
2022/06/04 13:49:28;;;;;;;;;;;;;;;;;;5112655;28;19912;-56
2022/06/04 13:51:55;;;;;;;;;;;;;;;;;;5112883;28;19908;-59
2022/06/04 13:54:21;;;;;;;;;;;;;;;;;;5112594;28;19912;-53
2022/06/04 13:56:48;;;;;;;;;;;;;;;;;;5112434;28;19915;-51
2022/06/04 13:59:14;;;;;;;;;;;;;;;;;;5113131;28;20015;-54
2022/06/04 14:01:41;;;;;;;;;;;;;;;;;;5112700;28;19979;-51
2022/06/04 14:06:52;;;;;;;;;;;;;;;;;;5112733;28;19961;-58
2022/06/04 14:09:19;;;;;;;;;;;;;;;;;;5114214;28;19947;-53
2022/06/04 14:11:45;;;;;;;;;;;;;;;;;;5116877;28;20384;-51
2022/06/04 14:14:12;;;;;;;;;;;;;;;;;;5116918;28;20007;-57
2022/06/04 14:16:38;;;;;;;;;;;;;;;;;;5117054;27;20338;-54
2022/06/04 14:19:05;;;;;;;;;;;;;;;;;;5117153;28;19923;-55
2022/06/04 14:21:31;;;;;;;;;;;;;;;;;;5116875;27;20295;-57
2022/06/04 14:23:58;;;;;;;;;;;;;;;;;;5116531;28;19908;-57
2022/06/04 14:26:25;;;;;;;;;;;;;;;;;;5116629;28;20292;-46
2022/06/04 14:28:52;;;;;;;;;;;;;;;;;;5116629;28;20024;-58
2022/06/04 14:31:18;;;;;;;;;;;;;;;;;;5116624;28;20003;-54
2022/06/04 14:33:45;;;;;;;;;;;;;;;;;;5116594;28;20061;-56
2022/06/04 14:36:11;;;;;;;;;;;;;;;;;;5116798;28;19912;-56
2022/06/04 14:38:38;;;;;;;;;;;;;;;;;;5116514;28;20262;-58
2022/06/04 14:41:04;;;;;;;;;;;;;;;;;;5116551;28;19908;-57
2022/06/04 14:43:30;;;;;;;;;;;;;;;;;;5116347;28;19908;-49
2022/06/04 14:46:00;;;;;;;;;;;;;;;;;;5116418;28;19915;-59
2022/06/04 14:48:27;;;;;;;;;;;;;;;;;;5116266;28;20397;-56
2022/06/04 14:50:53;;;;;;;;;;;;;;;;;;5116426;28;19976;-55
2022/06/04 14:53:20;;;;;;;;;;;;;;;;;;5116522;28;19915;-59
2022/06/04 14:55:49;;;;;;;;;;;;;;;;;;5115664;28;19911;-58
2022/06/04 14:58:15;;;;;;;;;;;;;;;;;;5116316;27;19938;-55
2022/06/04 15:00:42;;;;;;;;;;;;;;;;;;5116293;28;19908;-58
2022/06/04 15:03:08;;;;;;;;;;;;;;;;;;5116256;28;19908;-59
2022/06/04 15:05:35;;;;;;;;;;;;;;;;;;5115876;28;20036;-59
2022/06/04 15:08:02;;;;;;;;;;;;;;;;;;5116230;27;19924;-59
2022/06/04 15:10:28;;;;;;;;;;;;;;;;;;5115721;28;19907;-59
2022/06/04 15:12:55;;;;;;;;;;;;;;;;;;5116403;27;19934;-58
2022/06/04 15:15:21;;;;;;;;;;;;;;;;;;5115922;27;19914;-54
2022/06/04 15:17:48;;;;;;;;;;;;;;;;;;5115866;28;19961;-52
2022/06/04 15:20:14;;;;;;;;;;;;;;;;;;5115956;28;19907;-51
2022/06/04 15:22:42;;;;;;;;;;;;;;;;;;5115148;28;19912;-59
2022/06/04 15:25:09;;;;;;;;;;;;;;;;;;5115673;28;19951;-52
2022/06/04 15:27:36;;;;;;;;;;;;;;;;;;5115529;28;20308;-58
2022/06/04 15:35:31;;;;;;;;;;;;;;;;;;5115467;28;20385;-58
2022/06/04 15:37:58;;;;;;;;;;;;;;;;;;5115732;28;19922;-57
2022/06/04 15:40:25;;;;;;;;;;;;;;;;;;5115475;28;19907;-56
2022/06/04 15:42:52;;;;;;;;;;;;;;;;;;5114347;28;20010;-52
2022/06/04 15:45:21;;;;;;;;;;;;;;;;;;5115299;28;19907;-55
2022/06/04 15:47:48;;;;;;;;;;;;;;;;;;5115582;28;19995;-61
2022/06/04 15:55:43;;;;;;;;;;;;;;;;;;5115063;28;19918;-60
2022/06/04 15:58:10;;;;;;;;;;;;;;;;;;5115320;27;19916;-59
2022/06/04 16:00:38;;;;;;;;;;;;;;;;;;5114922;28;19908;-57
2022/06/04 16:03:05;;;;;;;;;;;;;;;;;;5115270;27;19908;-59
2022/06/04 16:05:31;;;;;;;;;;;;;;;;;;5114844;28;19919;-60
2022/06/04 16:08:06;;;;;;;;;;;;;;;;;;5114923;28;19943;-60
2022/06/04 16:10:33;;;;;;;;;;;;;;;;;;5114727;28;20014;-60
2022/06/04 16:13:00;;;;;;;;;;;;;;;;;;5114993;28;19923;-55
2022/06/04 16:15:26;;;;;;;;;;;;;;;;;;5114874;28;19911;-54
2022/06/04 16:17:52;;;;;;;;;;;;;;;;;;5114602;28;19978;-56
2022/06/04 16:20:19;;;;;;;;;;;;;;;;;;5114614;28;20007;-59
2022/06/04 16:22:46;;;;;;;;;;;;;;;;;;5114593;28;19914;-59
2022/06/04 16:25:12;;;;;;;;;;;;;;;;;;5114789;28;20262;-57
2022/06/04 16:27:39;;;;;;;;;;;;;;;;;;5114129;27;19908;-52
2022/06/04 16:30:05;;;;;;;;;;;;;;;;;;5114938;28;19915;-60
2022/06/04 16:32:32;;;;;;;;;;;;;;;;;;5113335;28;19982;-59
2022/06/04 16:35:00;;;;;;;;;;;;;;;;;;5114593;28;19907;-51
2022/06/04 16:37:26;;;;;;;;;;;;;;;;;;5114456;28;19970;-59
2022/06/04 16:39:53;;;;;;;;;;;;;;;;;;5114195;28;20411;-46
2022/06/04 16:42:19;;;;;;;;;;;;;;;;;;5114492;28;19999;-58
2022/06/04 16:44:46;;;;;;;;;;;;;;;;;;5114233;28;20282;-59
2022/06/04 16:47:12;;;;;;;;;;;;;;;;;;5112813;28;20376;-60
2022/06/04 16:49:48;;;;;;;;;;;;;;;;;;5114359;28;19911;-48
2022/06/04 16:52:15;;;;;;;;;;;;;;;;;;5114410;28;19914;-41
2022/06/04 16:54:41;;;;;;;;;;;;;;;;;;5113856;28;19912;-42
2022/06/04 16:57:08;;;;;;;;;;;;;;;;;;5113789;27;20335;-48
2022/06/04 16:59:34;;;;;;;;;;;;;;;;;;5113948;28;19930;-47
2022/06/04 17:02:01;;;;;;;;;;;;;;;;;;5114207;28;20302;-51
2022/06/04 17:04:27;;;;;;;;;;;;;;;;;;5113806;28;19908;-45
2022/06/04 17:06:54;;;;;;;;;;;;;;;;;;5113661;28;19937;-50
2022/06/04 17:09:20;;;;;;;;;;;;;;;;;;5113955;28;19984;-44
2022/06/04 17:11:47;;;;;;;;;;;;;;;;;;5113620;28;19908;-46
2022/06/04 17:14:13;;;;;;;;;;;;;;;;;;5113932;28;19908;-50